Mount Carmel, Tennessee
Current Conditions -  °F | °C
As of 5:29 AM on Thursday 18 Dec 2014 (Local Time) from KTRI Reporting Station
Haze Haze  
Wind Chill: 27°   Ceiling: 100
Heat Index: 27°   Visibility: 0.75mi
Dew Point: 26°   Wind: 0mph
Humidity: 96%   Direction: NA
Pressure: 30.18"   Gusts: NA
Location:  36.55°N, 82.66°W
Report Text: KTRI 181029Z 00000KT 3/4SM BR BKN001 M03/M03 A3018 RMK AO2 I1000 T10281033
Loading
Personal Weather Stations






























Interactive Weather Map New forecast layout! Learn more

10-Day Weather Forecast

Advertisements
Track Severe Weather on mobile